Geary, Oklahoma
Current Conditions -  °F | °C
As of 9:55 AM on Sunday 21 Dec 2014 (Local Time) from KJWG Reporting Station
Haze Haze  
Wind Chill: 37°   Ceiling: 500
Heat Index: 43°   Visibility: 4mi
Dew Point: 43°   Wind: 13mph
Humidity: 100%   Direction: 170°S
Pressure: 29.94"   Gusts: 21mph
Location:  35.63°N, 98.32°W
Report Text: KJWG 211555Z AUTO 17011G18KT 4SM BR OVC005 06/06 A2994 RMK AO2 T00630063
Loading
Personal Weather Stations






























Interactive Weather Map New forecast layout! Learn more

10-Day Weather Forecast

Advertisements
Track Severe Weather on mobile